Time;durP1;ratioP1;P1;durP2;ratioP2;P2;SDS_P1;SDS_P2;PMS_P1;PMS_P2;Temp;Humidity;BMP_temperature;BMP_pressure;BME280_temperature;BME280_humidity;BME280_pressure;Samples;Min_cycle;Max_cycle;Signal;HPM_P1;HPM_P2
2022/07/28 00:00:34;;;;;;;0.85;0.30;;;;;;;29.43;32.13;98769.94;5086927;28;20032;-59
2022/07/28 00:03:00;;;;;;;0.60;0.40;;;;;;;29.40;32.49;98760.38;5076110;28;20060;-58
2022/07/28 00:05:26;;;;;;;1.27;0.30;;;;;;;29.41;32.15;98766.78;5070781;28;20055;-59
2022/07/28 00:07:51;;;;;;;0.38;0.30;;;;;;;29.41;32.46;98764.75;5082267;28;20138;-58
2022/07/28 00:10:17;;;;;;;0.50;0.30;;;;;;;29.43;32.28;98759.47;5089861;28;21663;-58
2022/07/28 00:12:42;;;;;;;0.30;0.30;;;;;;;29.44;32.43;98763.88;5084818;28;20041;-59
2022/07/28 00:15:08;;;;;;;0.65;0.38;;;;;;;29.42;32.10;98757.88;5083915;28;20044;-59
2022/07/28 00:17:34;;;;;;;0.30;0.30;;;;;;;29.42;32.28;98757.09;5084944;28;20048;-59
2022/07/28 00:19:59;;;;;;;0.50;0.30;;;;;;;29.40;32.16;98753.94;5083619;28;20040;-58
2022/07/28 00:22:25;;;;;;;0.57;0.40;;;;;;;29.37;32.15;98749.22;5070596;28;20545;-59
2022/07/28 00:24:50;;;;;;;0.52;0.40;;;;;;;29.39;32.21;98758.78;5089628;28;20048;-59
2022/07/28 00:27:17;;;;;;;0.45;0.30;;;;;;;29.41;32.08;98755.53;5077099;28;20048;-58
2022/07/28 00:29:43;;;;;;;0.60;0.40;;;;;;;29.41;32.11;98756.31;5109974;28;20036;-58
2022/07/28 00:32:08;;;;;;;0.75;0.38;;;;;;;29.38;32.43;98747.97;5109662;28;20837;-58
2022/07/28 00:34:37;;;;;;;0.40;0.30;;;;;;;29.39;32.34;98753.16;5091377;28;20032;-58
2022/07/28 00:37:02;;;;;;;0.30;0.30;;;;;;;29.38;32.08;98750.81;5099232;28;20053;-58
2022/07/28 00:39:28;;;;;;;0.40;0.35;;;;;;;29.38;32.35;98751.59;5107763;28;20415;-58
2022/07/28 00:41:53;;;;;;;0.38;0.35;;;;;;;29.37;32.36;98766.91;5108792;28;20118;-59
2022/07/28 00:44:19;;;;;;;0.30;0.30;;;;;;;29.38;32.17;98762.84;5108739;28;20503;-59
2022/07/28 00:46:44;;;;;;;0.60;0.30;;;;;;;29.38;32.17;98770.53;5109233;28;20423;-59
2022/07/28 00:49:12;;;;;;;0.30;0.30;;;;;;;29.38;32.05;98762.06;5104906;28;20044;-58
2022/07/28 00:51:38;;;;;;;0.38;0.38;;;;;;;29.37;32.50;98766.91;5098570;28;20048;-58
2022/07/28 00:54:04;;;;;;;0.25;0.25;;;;;;;29.32;32.50;98765.44;5098543;28;20131;-58
2022/07/28 00:56:30;;;;;;;0.38;0.30;;;;;;;29.36;32.16;98768.13;5093393;28;20139;-58
2022/07/28 00:58:56;;;;;;;0.35;0.30;;;;;;;29.33;32.57;98767.00;5093206;28;20415;-58
2022/07/28 01:01:24;;;;;;;0.20;0.20;;;;;;;29.36;32.30;98765.31;5105642;28;20135;-58
2022/07/28 01:03:53;;;;;;;0.30;0.22;;;;;;;29.34;32.37;98762.16;5109609;28;20044;-58
2022/07/28 01:06:19;;;;;;;0.28;0.28;;;;;;;29.37;32.30;98766.91;5100342;28;20044;-59
2022/07/28 01:09:06;;;;;;;0.30;0.30;;;;;;;29.36;32.50;98770.94;5103258;28;20525;-59
2022/07/28 01:12:02;;;;;;;0.40;0.30;;;;;;;29.36;32.53;98773.75;5109310;28;20140;-58
2022/07/28 01:14:40;;;;;;;0.73;0.43;;;;;;;29.35;32.67;98769.38;5108810;28;20138;-58
2022/07/28 01:17:47;;;;;;;0.38;0.30;;;;;;;29.36;32.45;98770.94;5100400;28;20050;-58
2022/07/28 01:20:49;;;;;;;0.35;0.30;;;;;;;29.34;32.51;98768.59;5020696;28;20480;-58
2022/07/28 01:23:32;;;;;;;0.47;0.30;;;;;;;29.35;32.22;98769.38;5008213;28;20080;-59
2022/07/28 01:26:09;;;;;;;0.90;0.40;;;;;;;29.35;32.64;98769.38;5019419;28;20049;-58
2022/07/28 01:28:58;;;;;;;0.40;0.40;;;;;;;29.34;32.74;98764.97;5027600;28;20060;-58
2022/07/28 01:31:25;;;;;;;0.25;0.25;;;;;;;29.35;32.62;98763.75;5034880;28;20054;-58
2022/07/28 01:33:56;;;;;;;0.35;0.35;;;;;;;29.34;32.69;98768.59;5037409;28;20041;-58
2022/07/28 01:36:27;;;;;;;0.40;0.40;;;;;;;29.32;32.46;98759.81;5015551;28;20125;-59
2022/07/28 01:38:53;;;;;;;0.87;0.60;;;;;;;29.34;32.69;98762.16;5024141;28;20049;-58
2022/07/28 01:41:22;;;;;;;0.60;0.40;;;;;;;29.30;32.58;98758.69;5025490;28;20284;-58
2022/07/28 01:44:12;;;;;;;0.47;0.40;;;;;;;29.33;32.76;98764.19;5010908;28;20117;-58
2022/07/28 01:46:37;;;;;;;0.63;0.40;;;;;;;29.34;32.63;98762.94;5014152;28;20061;-59
2022/07/28 01:49:03;;;;;;;0.68;0.47;;;;;;;29.34;32.67;98762.16;5017844;28;20045;-58
2022/07/28 01:51:31;;;;;;;0.80;0.30;;;;;;;29.36;32.60;98764.53;5029223;28;20288;-59
2022/07/28 01:53:59;;;;;;;0.70;0.50;;;;;;;29.34;32.96;98764.97;5017696;28;20050;-58
2022/07/28 01:56:27;;;;;;;0.43;0.40;;;;;;;29.34;32.84;98764.97;5076715;28;20507;-58
2022/07/28 01:58:54;;;;;;;0.77;0.47;;;;;;;29.35;32.92;98763.75;5111649;28;20048;-58
2022/07/28 02:01:22;;;;;;;0.32;0.30;;;;;;;29.33;32.94;98749.31;5110657;28;20446;-59
2022/07/28 02:03:50;;;;;;;0.40;0.40;;;;;;;29.34;32.57;98750.91;5111694;28;20578;-59
2022/07/28 02:06:18;;;;;;;0.38;0.30;;;;;;;29.32;32.67;98759.00;5108326;28;20083;-58
2022/07/28 02:08:45;;;;;;;0.40;0.40;;;;;;;29.36;32.60;98747.63;5101655;28;20068;-58
2022/07/28 02:13:56;;;;;;;0.40;0.30;;;;;;;29.33;32.79;98752.13;5102330;28;20051;-58
2022/07/28 02:16:24;;;;;;;0.47;0.40;;;;;;;29.32;32.69;98745.72;5094405;28;20046;-58
2022/07/28 02:18:52;;;;;;;0.32;0.30;;;;;;;29.30;32.71;98745.38;5100949;28;20087;-58
2022/07/28 02:21:20;;;;;;;0.43;0.30;;;;;;;29.30;33.03;98753.03;5095315;28;20076;-58
2022/07/28 02:23:49;;;;;;;0.35;0.30;;;;;;;29.28;32.71;98750.66;5096711;28;20048;-58
2022/07/28 02:26:16;;;;;;;0.30;0.30;;;;;;;29.29;32.74;98751.44;5091590;28;20043;-58
2022/07/28 02:28:45;;;;;;;0.30;0.30;;;;;;;29.28;32.90;98744.22;5105779;28;20040;-58
2022/07/28 02:31:27;;;;;;;0.20;0.20;;;;;;;29.28;32.98;98747.06;5091573;28;20048;-58
2022/07/28 02:33:57;;;;;;;0.35;0.30;;;;;;;29.29;32.82;98754.25;5098000;28;20051;-57
2022/07/28 02:36:29;;;;;;;0.30;0.20;;;;;;;29.27;32.98;98749.09;5111673;28;20063;-58
2022/07/28 02:39:05;;;;;;;0.63;0.40;;;;;;;29.28;32.78;98749.88;5096814;28;20074;-58
2022/07/28 02:41:33;;;;;;;0.35;0.30;;;;;;;29.26;32.79;98747.50;5109757;28;20036;-58
2022/07/28 02:44:03;;;;;;;0.70;0.43;;;;;;;29.24;32.75;98757.66;5093603;28;20040;-59
2022/07/28 02:46:41;;;;;;;0.30;0.30;;;;;;;29.24;32.87;98757.66;5107887;28;20040;-59
2022/07/28 02:49:13;;;;;;;0.20;0.20;;;;;;;29.26;32.95;98749.53;5091230;28;20040;-59
2022/07/28 02:51:41;;;;;;;0.50;0.40;;;;;;;29.25;33.06;98742.34;5092110;28;20056;-59
2022/07/28 02:54:07;;;;;;;0.38;0.30;;;;;;;29.25;33.03;98742.34;5108809;28;20118;-59
2022/07/28 02:56:34;;;;;;;0.30;0.30;;;;;;;29.26;32.89;98750.31;5109807;28;20092;-59
2022/07/28 02:59:00;;;;;;;0.38;0.30;;;;;;;29.25;32.86;98747.97;5106977;28;20047;-58
2022/07/28 03:01:26;;;;;;;0.47;0.40;;;;;;;29.25;33.13;98747.97;5099654;28;20056;-59
2022/07/28 03:03:52;;;;;;;1.27;0.45;;;;;;;29.23;32.83;98748.41;5109263;28;20405;-59
2022/07/28 03:06:21;;;;;;;0.43;0.30;;;;;;;29.25;32.95;98750.78;5110788;28;20096;-59
2022/07/28 03:08:49;;;;;;;0.60;0.30;;;;;;;29.24;32.96;98752.03;5097366;28;20480;-58
2022/07/28 03:11:15;;;;;;;0.30;0.30;;;;;;;29.23;33.12;98748.41;5107307;28;20460;-59
2022/07/28 03:13:41;;;;;;;0.40;0.40;;;;;;;29.20;33.14;98740.84;5098988;28;20040;-59
2022/07/28 03:16:07;;;;;;;0.30;0.20;;;;;;;29.24;33.12;98750.00;5105015;28;20051;-59
2022/07/28 03:18:33;;;;;;;0.32;0.30;;;;;;;29.23;33.32;98748.41;5100816;28;20634;-59
2022/07/28 03:20:59;;;;;;;0.40;0.30;;;;;;;29.24;33.21;98752.03;5100912;28;20050;-59
2022/07/28 03:23:54;;;;;;;0.30;0.30;;;;;;;29.25;33.20;98753.59;5105504;28;20055;-59
2022/07/28 03:26:46;;;;;;;0.47;0.40;;;;;;;29.25;33.01;98750.78;5075446;28;20462;-60
2022/07/28 03:29:13;;;;;;;0.30;0.30;;;;;;;29.23;33.36;98758.91;5098927;28;20069;-58
2022/07/28 03:31:40;;;;;;;0.50;0.30;;;;;;;29.23;33.27;98758.91;5105476;28;20108;-58
2022/07/28 03:34:05;;;;;;;0.50;0.43;;;;;;;29.20;33.03;98757.75;5104757;28;20521;-58
2022/07/28 03:36:38;;;;;;;0.30;0.30;;;;;;;29.22;33.07;98763.75;5105661;28;20035;-58
2022/07/28 03:39:08;;;;;;;0.32;0.30;;;;;;;29.24;33.12;98763.28;5099882;28;20085;-58
2022/07/28 03:41:35;;;;;;;0.50;0.40;;;;;;;29.21;33.00;98769.81;5104722;28;20487;-58
2022/07/28 03:44:01;;;;;;;0.50;0.32;;;;;;;29.22;33.37;98771.38;5097150;28;20040;-58
2022/07/28 03:46:27;;;;;;;0.40;0.40;;;;;;;29.21;33.21;98776.22;5101308;28;20397;-58
2022/07/28 03:48:53;;;;;;;0.60;0.40;;;;;;;29.21;33.38;98779.03;5093072;28;20055;-58
2022/07/28 03:51:18;;;;;;;0.55;0.45;;;;;;;29.21;33.31;98773.41;5091118;28;20071;-59
2022/07/28 03:53:44;;;;;;;0.20;0.20;;;;;;;29.21;33.21;98772.63;5105071;28;20044;-59
2022/07/28 03:56:10;;;;;;;0.25;0.25;;;;;;;29.21;33.41;98772.63;5109579;28;20044;-58
2022/07/28 03:58:35;;;;;;;0.40;0.30;;;;;;;29.22;33.11;98774.19;5110318;28;20568;-58
2022/07/28 04:01:01;;;;;;;0.30;0.30;;;;;;;29.22;33.33;98788.28;5102626;28;20088;-58
2022/07/28 04:03:26;;;;;;;0.40;0.30;;;;;;;29.22;33.59;98777.81;5093333;28;20048;-58
2022/07/28 04:05:54;;;;;;;0.30;0.30;;;;;;;29.20;33.54;98785.91;5100398;28;20047;-59
2022/07/28 04:08:19;;;;;;;0.40;0.38;;;;;;;29.20;33.27;98788.72;5101375;28;20395;-58
2022/07/28 04:10:45;;;;;;;0.47;0.40;;;;;;;29.20;33.57;98785.13;5110575;28;20530;-59
2022/07/28 04:13:11;;;;;;;0.60;0.40;;;;;;;29.18;33.52;98785.59;5095595;28;20049;-59
2022/07/28 04:15:36;;;;;;;0.30;0.30;;;;;;;29.21;33.33;98786.69;5108169;28;20046;-58
2022/07/28 04:18:02;;;;;;;0.63;0.30;;;;;;;29.18;33.32;98785.59;5110411;28;20032;-59
2022/07/28 04:20:27;;;;;;;0.60;0.47;;;;;;;29.20;33.79;98793.56;5109776;28;20135;-58
2022/07/28 04:22:54;;;;;;;0.40;0.40;;;;;;;29.22;33.64;98791.09;5108304;28;20036;-58
2022/07/28 04:25:22;;;;;;;0.20;0.20;;;;;;;29.20;33.62;98790.75;5100520;28;20068;-58
2022/07/28 04:27:49;;;;;;;1.13;0.35;;;;;;;29.20;33.69;98787.94;5097613;28;20044;-58
2022/07/28 04:30:17;;;;;;;0.47;0.30;;;;;;;29.21;33.74;98795.94;5104045;28;20135;-59
2022/07/28 04:32:44;;;;;;;0.30;0.30;;;;;;;29.20;33.37;98793.56;5092390;28;20048;-58
2022/07/28 04:35:10;;;;;;;0.30;0.30;;;;;;;29.20;33.35;98794.38;5092699;28;20103;-59
2022/07/28 04:37:36;;;;;;;0.32;0.30;;;;;;;29.21;33.69;98800.78;5090971;28;20082;-59
2022/07/28 04:40:03;;;;;;;0.40;0.32;;;;;;;29.20;33.76;98805.63;5104042;28;20114;-58
2022/07/28 04:42:29;;;;;;;0.35;0.32;;;;;;;29.20;33.55;98794.38;5109117;28;20050;-58
2022/07/28 04:44:55;;;;;;;0.30;0.30;;;;;;;29.19;33.52;98800.44;5109374;28;20126;-59
2022/07/28 04:47:20;;;;;;;0.43;0.30;;;;;;;29.18;33.48;98805.28;5108223;28;20564;-58
2022/07/28 04:49:46;;;;;;;0.43;0.35;;;;;;;29.18;33.50;98802.47;5109314;28;20078;-58
2022/07/28 04:52:11;;;;;;;0.30;0.30;;;;;;;29.19;33.75;98809.69;5108417;28;20483;-58
2022/07/28 04:54:37;;;;;;;0.40;0.32;;;;;;;29.17;33.76;98800.13;5108897;28;20577;-59
2022/07/28 04:57:03;;;;;;;0.50;0.40;;;;;;;29.18;33.93;98807.31;5094512;28;20105;-58
2022/07/28 04:59:29;;;;;;;0.38;0.38;;;;;;;29.19;33.58;98811.72;5109161;28;20128;-59
2022/07/28 05:01:58;;;;;;;0.50;0.50;;;;;;;29.19;33.83;98811.72;5108821;28;20134;-59
2022/07/28 05:04:23;;;;;;;0.43;0.43;;;;;;;29.20;33.93;98810.47;5108295;28;20055;-59
2022/07/28 05:06:48;;;;;;;0.70;0.50;;;;;;;29.21;33.86;98815.66;5108993;28;20415;-58
2022/07/28 05:09:14;;;;;;;0.30;0.30;;;;;;;29.20;33.75;98814.09;5107903;28;20620;-58
2022/07/28 05:11:39;;;;;;;0.35;0.35;;;;;;;29.22;33.91;98811.63;5108612;28;20055;-58
2022/07/28 05:14:05;;;;;;;0.45;0.40;;;;;;;29.21;34.03;98810.03;5107762;28;20062;-58
2022/07/28 05:16:31;;;;;;;1.50;0.50;;;;;;;29.24;33.90;98816.81;5102104;28;20036;-59
2022/07/28 05:18:56;;;;;;;0.40;0.40;;;;;;;29.26;34.00;98819.97;5103678;28;20048;-59
2022/07/28 05:21:22;;;;;;;0.50;0.40;;;;;;;29.27;33.86;98816.69;5111331;28;20114;-58
2022/07/28 05:23:47;;;;;;;0.52;0.40;;;;;;;29.25;33.59;98809.94;5112563;28;20483;-58
2022/07/28 05:26:13;;;;;;;0.73;0.50;;;;;;;29.29;33.87;98817.06;5101339;28;20032;-58
2022/07/28 05:28:39;;;;;;;0.60;0.50;;;;;;;29.33;33.77;98814.13;5097908;28;20065;-58
2022/07/28 05:31:06;;;;;;;0.60;0.40;;;;;;;29.33;34.16;98805.66;5112432;28;20434;-57
2022/07/28 05:33:32;;;;;;;1.67;0.50;;;;;;;29.36;34.45;98810.38;5111355;28;20126;-57
2022/07/28 05:35:57;;;;;;;6.43;0.60;;;;;;;29.38;34.42;98804.31;5112331;28;21143;-57
2022/07/28 05:38:23;;;;;;;9.23;1.00;;;;;;;29.39;34.42;98809.50;5111257;28;20078;-57
2022/07/28 05:40:49;;;;;;;17.88;1.00;;;;;;;29.39;34.74;98814.34;5112177;28;20048;-57
2022/07/28 05:43:15;;;;;;;26.48;1.50;;;;;;;29.41;34.35;98821.13;5112153;28;20083;-58
2022/07/28 05:45:40;;;;;;;12.38;1.10;;;;;;;29.44;34.28;98825.06;5110954;28;20082;-57
2022/07/28 05:48:06;;;;;;;26.02;1.33;;;;;;;29.44;34.22;98820.22;5112192;28;20042;-58
2022/07/28 05:50:31;;;;;;;12.05;1.20;;;;;;;29.46;34.22;98825.41;5111004;28;20055;-57
2022/07/28 05:52:57;;;;;;;15.25;0.98;;;;;;;29.46;34.20;98820.56;5111870;28;20035;-57
2022/07/28 05:55:22;;;;;;;11.50;1.05;;;;;;;29.46;34.03;98811.31;5108879;28;20130;-57
2022/07/28 05:57:47;;;;;;;7.70;1.10;;;;;;;29.48;33.92;98820.91;5105688;28;20411;-57
2022/07/28 06:00:15;;;;;;;10.25;0.80;;;;;;;29.50;34.07;98820.44;5108103;28;20064;-57
2022/07/28 06:02:46;;;;;;;5.20;0.80;;;;;;;29.44;34.02;98811.78;5094527;28;20043;-57
2022/07/28 06:05:12;;;;;;;9.55;0.95;;;;;;;29.23;33.90;98821.66;5103519;28;20048;-57
2022/07/28 06:07:38;;;;;;;5.80;1.13;;;;;;;28.98;35.03;98822.34;5102778;28;20168;-57
2022/07/28 06:10:04;;;;;;;7.45;0.70;;;;;;;28.84;35.24;98819.91;5110996;28;20123;-57
2022/07/28 06:12:29;;;;;;;10.27;0.85;;;;;;;28.86;35.03;98834.31;5109221;28;20057;-57
2022/07/28 06:14:55;;;;;;;4.95;0.70;;;;;;;28.82;35.18;98835.66;5110912;28;20399;-57
2022/07/28 06:17:20;;;;;;;3.25;0.60;;;;;;;28.79;34.61;98835.34;5110422;28;20047;-57
2022/07/28 06:19:46;;;;;;;2.22;0.50;;;;;;;28.76;35.60;98849.47;5109496;28;20117;-57
2022/07/28 06:22:11;;;;;;;2.75;0.80;;;;;;;28.56;35.36;98834.75;5099905;28;20047;-57
2022/07/28 06:24:37;;;;;;;3.38;0.80;;;;;;;28.54;35.62;98848.47;5092043;28;20047;-57
2022/07/28 06:27:02;;;;;;;4.10;0.70;;;;;;;28.56;35.60;98843.97;5097483;28;20035;-57
2022/07/28 06:29:29;;;;;;;2.10;0.70;;;;;;;28.56;35.25;98848.81;5099607;28;20557;-57
2022/07/28 06:31:54;;;;;;;1.60;0.60;;;;;;;28.57;35.54;98844.75;5104626;28;20127;-57
2022/07/28 06:34:20;;;;;;;1.27;0.63;;;;;;;28.59;35.43;98851.56;5106584;28;20095;-57
2022/07/28 06:36:45;;;;;;;1.67;0.60;;;;;;;28.60;35.22;98849.53;5104469;28;20123;-57
2022/07/28 06:39:11;;;;;;;2.13;0.47;;;;;;;28.59;35.17;98854.38;5100117;28;20151;-57
2022/07/28 06:41:40;;;;;;;2.00;0.60;;;;;;;28.59;35.34;98845.13;5097194;28;20075;-57
2022/07/28 06:44:07;;;;;;;1.42;0.50;;;;;;;28.61;35.25;98840.63;5110731;28;20050;-57
2022/07/28 06:46:32;;;;;;;1.60;0.60;;;;;;;28.59;35.17;98850.75;5111037;28;20529;-57
2022/07/28 06:48:58;;;;;;;0.63;0.50;;;;;;;28.59;35.43;98850.75;5092094;28;20036;-57
2022/07/28 06:51:23;;;;;;;1.60;0.60;;;;;;;28.60;35.13;98850.31;5093248;28;20040;-55
2022/07/28 06:53:49;;;;;;;2.60;0.70;;;;;;;28.60;34.95;98846.72;5099100;28;20031;-57
2022/07/28 06:56:14;;;;;;;1.33;0.50;;;;;;;28.59;35.03;98847.94;5101452;28;20041;-57
2022/07/28 06:58:40;;;;;;;1.52;0.50;;;;;;;28.61;35.13;98853.91;5105052;28;20517;-57
2022/07/28 07:01:06;;;;;;;2.03;0.60;;;;;;;28.61;35.04;98853.91;5111232;28;20039;-57
2022/07/28 07:03:32;;;;;;;3.58;0.52;;;;;;;28.61;34.95;98856.72;5110777;28;20042;-58
2022/07/28 07:05:58;;;;;;;1.50;0.60;;;;;;;28.58;35.05;98852.78;5110866;28;20380;-57
2022/07/28 07:08:23;;;;;;;1.17;0.60;;;;;;;28.61;35.10;98845.47;5111434;28;20514;-57
2022/07/28 07:10:49;;;;;;;1.40;0.63;;;;;;;28.59;35.14;98845.13;5110580;28;20043;-57
2022/07/28 07:13:14;;;;;;;0.70;0.50;;;;;;;28.57;34.83;98842.75;5102370;28;20044;-57
2022/07/28 07:15:40;;;;;;;1.67;0.50;;;;;;;28.49;34.00;98839.31;5092462;28;21066;-56
2022/07/28 07:18:05;;;;;;;2.55;0.50;;;;;;;28.36;36.24;98838.47;5104374;28;20063;-57
2022/07/28 07:20:31;;;;;;;1.50;0.50;;;;;;;28.28;35.96;98839.03;5101372;28;20032;-56
2022/07/28 07:22:56;;;;;;;2.38;0.63;;;;;;;28.23;35.61;98837.56;5101597;28;20051;-56
2022/07/28 07:25:22;;;;;;;5.50;0.50;;;;;;;28.15;36.75;98839.78;5097846;28;20062;-56
2022/07/28 07:27:47;;;;;;;1.58;0.60;;;;;;;28.11;35.82;98829.81;5106129;28;20046;-56
2022/07/28 07:30:14;;;;;;;1.60;0.63;;;;;;;28.07;36.94;98841.16;5091478;28;20040;-56
2022/07/28 07:32:40;;;;;;;1.52;0.50;;;;;;;28.04;36.21;98839.22;5096879;28;20055;-56
2022/07/28 07:35:06;;;;;;;1.23;0.57;;;;;;;28.01;36.77;98833.69;5084742;28;20423;-57
2022/07/28 07:37:32;;;;;;;1.13;0.50;;;;;;;27.98;37.17;98836.13;5099203;28;20419;-57
2022/07/28 07:39:59;;;;;;;1.85;0.77;;;;;;;27.93;36.81;98830.25;5103908;28;20514;-56
2022/07/28 07:42:24;;;;;;;2.85;0.80;;;;;;;28.00;37.67;98826.47;5096276;28;20047;-57
2022/07/28 07:44:50;;;;;;;4.85;0.70;;;;;;;27.98;36.48;98827.69;5100167;28;20048;-57
2022/07/28 07:47:17;;;;;;;3.95;0.80;;;;;;;27.98;37.80;98826.91;5106334;28;20747;-57
2022/07/28 07:49:43;;;;;;;1.58;0.65;;;;;;;27.94;36.78;98820.59;5095001;28;20036;-56
2022/07/28 07:52:08;;;;;;;6.22;0.70;;;;;;;27.92;37.80;98829.44;5089957;28;20048;-56
2022/07/28 07:54:34;;;;;;;3.83;0.70;;;;;;;27.92;37.33;98818.22;5071717;28;20040;-56
2022/07/28 07:56:59;;;;;;;6.47;0.80;;;;;;;27.92;37.63;98814.59;5087041;28;20386;-56
2022/07/28 07:59:25;;;;;;;7.05;0.98;;;;;;;27.88;38.05;98820.31;5093199;28;20090;-57
2022/07/28 08:01:53;;;;;;;9.02;1.00;;;;;;;27.89;37.05;98823.94;5095177;28;20096;-57
2022/07/28 08:04:23;;;;;;;1.58;0.65;;;;;;;27.90;37.77;98831.91;5092150;28;20039;-57
2022/07/28 08:06:49;;;;;;;2.42;0.70;;;;;;;27.88;36.87;98817.53;5097304;28;20522;-57
2022/07/28 08:09:16;;;;;;;5.88;0.90;;;;;;;27.85;37.79;98817.59;5091199;28;20050;-57
2022/07/28 08:11:42;;;;;;;5.85;1.27;;;;;;;27.84;36.99;98810.38;5091773;28;20036;-57
2022/07/28 08:14:07;;;;;;;6.15;1.20;;;;;;;27.83;37.76;98809.59;5091407;28;20093;-58
2022/07/28 08:16:33;;;;;;;4.30;1.17;;;;;;;27.82;37.17;98810.84;5088270;28;20101;-57
2022/07/28 08:18:58;;;;;;;4.40;1.08;;;;;;;27.82;38.03;98810.84;5088007;28;20051;-58
2022/07/28 08:21:25;;;;;;;5.55;1.00;;;;;;;27.85;37.68;98809.94;5090099;28;20099;-57
2022/07/28 08:23:51;;;;;;;4.50;1.13;;;;;;;27.91;38.02;98799.75;5088710;28;20126;-57
2022/07/28 08:26:17;;;;;;;1.98;0.90;;;;;;;27.91;37.12;98799.75;5092363;28;20056;-58
2022/07/28 08:28:42;;;;;;;3.88;1.13;;;;;;;27.88;38.08;98794.25;5071136;28;20055;-57
2022/07/28 08:31:07;;;;;;;5.85;1.23;;;;;;;27.87;37.82;98792.66;5069939;28;20094;-57
2022/07/28 08:33:33;;;;;;;7.20;1.10;;;;;;;27.86;36.99;98793.88;5070867;28;20075;-57
2022/07/28 08:35:59;;;;;;;3.47;1.20;;;;;;;27.83;38.03;98792.75;5076148;28;20561;-57
2022/07/28 08:38:24;;;;;;;6.65;1.20;;;;;;;27.88;37.05;98789.41;5074838;28;20045;-58
2022/07/28 08:40:55;;;;;;;4.18;1.00;;;;;;;27.87;37.86;98785.03;5078320;28;20040;-57
2022/07/28 08:43:34;;;;;;;4.13;1.10;;;;;;;27.88;37.06;98783.00;5071618;28;20571;-57
2022/07/28 08:46:01;;;;;;;3.47;1.10;;;;;;;27.89;37.86;98791.00;5070575;28;20052;-57
2022/07/28 08:48:30;;;;;;;5.68;1.27;;;;;;;27.91;37.20;98788.53;5070750;28;20040;-57
2022/07/28 08:50:59;;;;;;;5.95;1.50;;;;;;;27.92;37.14;98778.84;5070292;28;20135;-58
2022/07/28 08:53:26;;;;;;;5.80;1.60;;;;;;;27.94;37.56;98782.03;5069047;28;20110;-56
2022/07/28 08:55:52;;;;;;;5.40;2.17;;;;;;;27.96;36.57;98782.38;5070761;28;20110;-58
2022/07/28 08:58:18;;;;;;;8.30;4.32;;;;;;;27.92;37.47;98778.84;5069620;28;20666;-58
2022/07/28 09:00:45;;;;;;;8.32;3.72;;;;;;;27.88;35.83;98780.97;5066209;28;20127;-57
2022/07/28 09:03:12;;;;;;;11.90;3.03;;;;;;;27.84;36.99;98773.84;5075766;28;20051;-57
2022/07/28 09:05:41;;;;;;;6.85;2.33;;;;;;;27.84;36.28;98785.09;5072103;28;20048;-58
2022/07/28 09:08:09;;;;;;;4.97;2.15;;;;;;;27.85;36.56;98783.84;5081399;28;20039;-58
2022/07/28 09:10:34;;;;;;;3.25;2.03;;;;;;;27.83;36.05;98773.06;5081065;28;20044;-57
2022/07/28 09:13:00;;;;;;;7.00;2.22;;;;;;;27.81;36.30;98767.09;5075626;28;20044;-58
2022/07/28 09:15:26;;;;;;;3.67;2.13;;;;;;;27.83;36.47;98772.28;5081293;28;20040;-57
2022/07/28 09:17:54;;;;;;;4.22;2.15;;;;;;;27.84;35.76;98765.41;5071267;28;20076;-58
2022/07/28 09:20:20;;;;;;;5.28;1.80;;;;;;;27.85;36.89;98761.38;5081521;28;20040;-56
2022/07/28 09:22:58;;;;;;;3.80;1.75;;;;;;;27.82;36.00;98768.69;5072220;28;20457;-57
2022/07/28 09:25:23;;;;;;;6.00;2.00;;;;;;;27.83;37.21;98770.25;5065065;28;20083;-56
2022/07/28 09:27:50;;;;;;;4.38;1.90;;;;;;;27.85;36.21;98764.97;5070027;28;20145;-56
2022/07/28 09:30:29;;;;;;;9.30;1.98;;;;;;;27.85;37.36;98753.72;5071346;28;20049;-56
2022/07/28 09:33:23;;;;;;;3.70;1.70;;;;;;;27.91;36.50;98759.63;5073781;28;20048;-58
2022/07/28 09:35:56;;;;;;;3.70;1.88;;;;;;;27.93;37.24;98754.34;5071317;28;20076;-58
2022/07/28 09:38:25;;;;;;;6.07;1.63;;;;;;;28.00;36.82;98747.75;5066088;28;20049;-57
2022/07/28 09:40:58;;;;;;;7.20;1.77;;;;;;;28.06;36.80;98748.81;5071609;28;20144;-57
2022/07/28 09:43:31;;;;;;;3.80;1.80;;;;;;;28.16;36.68;98742.94;5076267;28;20040;-58
2022/07/28 09:46:08;;;;;;;6.70;1.77;;;;;;;28.24;36.57;98735.09;5084119;28;20094;-57
2022/07/28 09:48:35;;;;;;;5.93;1.38;;;;;;;28.32;36.59;98728.06;5071778;28;20466;-57
2022/07/28 09:51:12;;;;;;;5.13;1.30;;;;;;;28.39;36.42;98724.28;5077670;28;20060;-57
2022/07/28 09:53:37;;;;;;;3.92;1.40;;;;;;;28.44;35.95;98723.75;5067026;28;20044;-57
2022/07/28 09:56:03;;;;;;;3.63;1.40;;;;;;;28.38;36.80;98708.63;5078116;28;20429;-57
2022/07/28 09:58:28;;;;;;;5.57;1.83;;;;;;;28.36;36.62;98699.81;5072653;28;20044;-57
2022/07/28 10:01:06;;;;;;;5.28;1.80;;;;;;;28.37;36.58;98690.97;5069109;28;20094;-57
2022/07/28 10:03:32;;;;;;;5.28;1.90;;;;;;;28.47;36.06;98689.09;5068778;28;20404;-57
2022/07/28 10:06:03;;;;;;;4.03;1.70;;;;;;;28.52;35.99;98686.53;5077653;28;20401;-56
2022/07/28 10:08:42;;;;;;;4.88;1.55;;;;;;;28.45;36.05;98695.16;5072021;28;20840;-57
2022/07/28 10:11:08;;;;;;;2.60;1.50;;;;;;;28.37;36.46;98685.34;5077007;28;20041;-58
2022/07/28 10:13:34;;;;;;;3.47;1.40;;;;;;;28.39;36.36;98680.06;5077552;28;20064;-57
2022/07/28 10:16:10;;;;;;;2.47;1.20;;;;;;;28.43;36.23;98689.19;5073490;28;20045;-57
2022/07/28 10:18:38;;;;;;;2.42;1.30;;;;;;;28.49;36.19;98678.94;5075511;28;20083;-57
2022/07/28 10:21:07;;;;;;;3.88;1.20;;;;;;;28.49;35.90;98675.34;5073230;28;20064;-57
2022/07/28 10:23:37;;;;;;;4.75;1.20;;;;;;;28.46;35.69;98679.06;5078042;28;20037;-57
2022/07/28 10:26:08;;;;;;;2.38;1.10;;;;;;;28.41;36.31;98680.41;5075799;28;20391;-56
2022/07/28 10:28:43;;;;;;;2.60;1.10;;;;;;;28.43;36.10;98675.13;5070910;28;20500;-57
2022/07/28 10:31:10;;;;;;;1.48;0.80;;;;;;;28.45;35.95;98674.69;5075260;28;20514;-57
2022/07/28 10:33:45;;;;;;;1.75;0.95;;;;;;;28.46;35.65;98677.03;5072614;28;20047;-57
2022/07/28 10:36:12;;;;;;;2.85;0.90;;;;;;;28.47;35.33;98670.19;5075764;28;20519;-58
2022/07/28 10:38:39;;;;;;;1.85;1.00;;;;;;;28.43;36.19;98671.50;5070881;28;20119;-57
2022/07/28 10:41:08;;;;;;;1.90;1.00;;;;;;;28.38;35.80;98666.44;5071738;28;20048;-57
2022/07/28 10:43:34;;;;;;;1.75;0.95;;;;;;;28.41;35.73;98663.50;5071419;28;20055;-58
2022/07/28 10:46:02;;;;;;;1.20;0.80;;;;;;;28.46;35.74;98650.94;5071054;28;20508;-57
2022/07/28 10:48:28;;;;;;;1.40;0.80;;;;;;;28.50;35.54;98646.78;5079898;28;20381;-57
2022/07/28 10:50:54;;;;;;;1.33;0.73;;;;;;;28.53;34.82;98647.91;5079585;28;20583;-57
2022/07/28 10:53:45;;;;;;;2.22;0.80;;;;;;;28.43;35.97;98647.00;5076673;28;20535;-57
2022/07/28 10:56:32;;;;;;;0.90;0.70;;;;;;;28.46;35.86;98653.75;5075028;28;20052;-57
2022/07/28 10:59:19;;;;;;;1.52;0.82;;;;;;;28.50;35.54;98643.97;5071920;28;20408;-57
2022/07/28 11:01:44;;;;;;;1.52;0.90;;;;;;;28.48;35.25;98635.19;5075443;28;20047;-57
2022/07/28 11:04:47;;;;;;;1.30;0.70;;;;;;;28.46;35.99;98650.94;5080026;28;20376;-57
2022/07/28 11:07:17;;;;;;;1.13;0.75;;;;;;;28.41;35.86;98643.81;5069309;28;20109;-57
2022/07/28 11:09:46;;;;;;;0.80;0.60;;;;;;;28.42;35.68;98645.41;5078908;28;20036;-58
2022/07/28 11:12:14;;;;;;;1.55;0.65;;;;;;;28.48;35.50;98634.38;5066966;28;20281;-58
2022/07/28 11:14:41;;;;;;;1.25;0.70;;;;;;;28.53;34.87;98622.59;5069233;28;20036;-58
2022/07/28 11:17:06;;;;;;;0.98;0.70;;;;;;;28.49;35.73;98627.53;5067548;28;20072;-58
2022/07/28 11:19:43;;;;;;;1.33;0.80;;;;;;;28.45;35.59;98629.66;5067949;28;20063;-57
2022/07/28 11:22:18;;;;;;;0.98;0.60;;;;;;;28.46;35.53;98626.41;5074930;28;20298;-57
2022/07/28 11:25:01;;;;;;;1.00;0.70;;;;;;;28.53;35.31;98619.78;5068775;28;20060;-58
2022/07/28 11:27:39;;;;;;;1.88;0.77;;;;;;;28.51;34.92;98623.03;5067564;28;20517;-57
2022/07/28 11:30:34;;;;;;;1.08;0.70;;;;;;;28.44;35.76;98617.63;5080285;28;20037;-58
2022/07/28 11:33:01;;;;;;;0.80;0.60;;;;;;;28.42;35.51;98610.84;5066583;28;20101;-57
2022/07/28 11:35:28;;;;;;;1.55;0.77;;;;;;;28.49;35.16;98608.63;5067848;28;20040;-57
2022/07/28 11:38:01;;;;;;;1.73;0.80;;;;;;;28.54;35.22;98606.50;5070978;28;20032;-58
2022/07/28 11:40:46;;;;;;;;;;;;;;;28.50;35.03;98601.78;5073174;28;20102;-59
2022/07/28 11:43:25;;;;;;;3.65;0.80;;;;;;;28.40;36.56;98600.06;5083022;28;19919;-57